createdAt,value
2023-04-21T00:02:24.411Z,14.10
2023-04-21T00:04:52.694Z,21.88
2023-04-21T00:07:21.057Z,12.93
2023-04-21T00:09:48.687Z,16.60
2023-04-21T00:12:16.356Z,17.30
2023-04-21T00:14:44.078Z,13.40
2023-04-21T00:17:13.819Z,16.33
2023-04-21T00:19:42.211Z,19.97
2023-04-21T00:22:14.781Z,17.58
2023-04-21T00:24:42.651Z,19.67
2023-04-21T00:27:11.426Z,16.95
2023-04-21T00:32:08.460Z,17.90
2023-04-21T00:34:37.536Z,18.97
2023-04-21T00:37:05.213Z,16.23
2023-04-21T00:39:32.837Z,20.70
2023-04-21T00:42:01.323Z,17.73
2023-04-21T00:44:29.029Z,19.25
2023-04-21T00:46:56.722Z,23.07
2023-04-21T00:49:26.453Z,20.63
2023-04-21T00:51:56.283Z,22.40
2023-04-21T00:54:25.655Z,22.67
2023-04-21T00:56:53.537Z,23.60
2023-04-21T00:59:21.493Z,22.83
2023-04-21T01:01:49.242Z,19.17
2023-04-21T01:04:17.011Z,22.83
2023-04-21T01:06:44.984Z,21.13
2023-04-21T01:09:14.154Z,22.42
2023-04-21T01:11:41.864Z,26.03
2023-04-21T01:14:09.688Z,25.73
2023-04-21T01:16:38.410Z,21.15
2023-04-21T01:21:41.531Z,18.20
2023-04-21T01:24:09.527Z,20.57
2023-04-21T01:26:37.250Z,21.13
2023-04-21T01:29:04.907Z,24.80
2023-04-21T01:31:32.798Z,23.83
2023-04-21T01:34:05.140Z,24.20
2023-04-21T01:36:32.875Z,21.07
2023-04-21T01:39:01.940Z,21.07
2023-04-21T01:41:29.712Z,21.37
2023-04-21T01:43:57.609Z,22.50
2023-04-21T01:46:25.333Z,23.88
2023-04-21T01:48:53.079Z,19.40
2023-04-21T01:51:20.824Z,28.10
2023-04-21T01:53:48.590Z,33.33
2023-04-21T01:56:18.904Z,30.70
2023-04-21T01:58:46.664Z,22.43
2023-04-21T02:01:14.357Z,22.87
2023-04-21T02:03:42.153Z,19.27
2023-04-21T02:06:09.876Z,25.90
2023-04-21T02:08:37.607Z,22.77
2023-04-21T02:11:05.296Z,22.47
2023-04-21T02:13:34.351Z,27.90
2023-04-21T02:16:12.788Z,21.37
2023-04-21T02:18:41.471Z,24.23
2023-04-21T02:21:09.230Z,22.15
2023-04-21T02:23:36.980Z,32.33
2023-04-21T02:26:04.745Z,26.10
2023-04-21T02:28:33.839Z,24.17
2023-04-21T02:31:01.715Z,29.60
2023-04-21T02:33:29.470Z,22.55
2023-04-21T02:35:57.163Z,24.77
2023-04-21T02:38:24.951Z,22.90
2023-04-21T02:40:52.761Z,24.60
2023-04-21T02:43:20.485Z,20.53
2023-04-21T02:45:49.717Z,28.33
2023-04-21T02:48:20.822Z,23.40
2023-04-21T02:50:48.561Z,22.87
2023-04-21T02:53:16.439Z,20.77
2023-04-21T02:55:44.119Z,20.90
2023-04-21T02:58:12.104Z,18.20
2023-04-21T03:00:39.828Z,26.23
2023-04-21T03:03:09.186Z,26.93
2023-04-21T03:05:37.090Z,28.50
2023-04-21T03:08:05.032Z,19.80
2023-04-21T03:10:32.714Z,32.20
2023-04-21T03:13:00.363Z,28.67
2023-04-21T03:15:28.257Z,26.03
2023-04-21T03:17:56.265Z,27.55
2023-04-21T03:20:25.473Z,19.65
2023-04-21T03:22:54.550Z,21.70
2023-04-21T03:25:22.678Z,23.93
2023-04-21T03:27:50.468Z,21.02
2023-04-21T03:30:18.137Z,24.03
2023-04-21T03:32:45.919Z,25.93
2023-04-21T03:35:13.616Z,28.98
2023-04-21T03:37:42.609Z,46.87
2023-04-21T03:40:11.439Z,26.07
2023-04-21T03:42:39.227Z,27.13
2023-04-21T03:45:08.842Z,24.03
2023-04-21T03:47:36.953Z,27.57
2023-04-21T03:50:05.295Z,22.17
2023-04-21T03:52:33.322Z,22.27
2023-04-21T03:55:02.369Z,24.13
2023-04-21T03:57:30.106Z,21.77
2023-04-21T03:59:57.838Z,25.77
2023-04-21T04:02:25.850Z,23.07
2023-04-21T04:04:53.848Z,23.73
2023-04-21T04:07:21.711Z,30.48
2023-04-21T04:09:49.497Z,25.80
2023-04-21T04:12:18.551Z,20.03
2023-04-21T04:14:46.207Z,21.90
2023-04-21T04:17:13.924Z,24.67
2023-04-21T04:19:41.697Z,25.40
2023-04-21T04:22:09.389Z,20.37
2023-04-21T04:24:37.461Z,20.27
2023-04-21T04:27:05.587Z,18.77
2023-04-21T04:29:34.916Z,15.48
2023-04-21T04:32:04.111Z,17.80
2023-04-21T04:34:32.685Z,18.33
2023-04-21T04:37:03.252Z,17.80
2023-04-21T04:39:31.863Z,27.77
2023-04-21T04:41:59.604Z,23.88
2023-04-21T04:44:28.130Z,22.10
2023-04-21T04:46:57.674Z,24.30
2023-04-21T04:49:25.933Z,19.00
2023-04-21T04:51:53.600Z,19.35
2023-04-21T04:54:21.716Z,18.90
2023-04-21T04:56:49.507Z,23.85
2023-04-21T04:59:17.131Z,22.40
2023-04-21T05:01:44.926Z,22.17
2023-04-21T05:04:16.347Z,30.60
2023-04-21T05:06:44.360Z,20.97
2023-04-21T05:09:12.341Z,23.30
2023-04-21T05:11:40.017Z,25.00
2023-04-21T05:14:07.674Z,25.57
2023-04-21T05:16:35.561Z,25.13
2023-04-21T05:19:03.321Z,26.80
2023-04-21T05:21:33.457Z,25.47
2023-04-21T05:24:01.377Z,28.50
2023-04-21T05:26:30.264Z,25.27
2023-04-21T05:28:58.874Z,29.53
2023-04-21T05:31:26.914Z,35.42
2023-04-21T05:33:54.698Z,30.73
2023-04-21T05:36:24.827Z,29.33
2023-04-21T05:38:55.042Z,28.37
2023-04-21T05:41:23.127Z,23.87
2023-04-21T05:43:50.912Z,27.70
2023-04-21T05:46:18.794Z,31.03
2023-04-21T05:48:46.628Z,28.85
2023-04-21T05:51:16.457Z,21.83
2023-04-21T05:53:45.192Z,31.27
2023-04-21T05:58:41.974Z,28.33
2023-04-21T06:01:09.906Z,34.20
2023-04-21T06:03:37.900Z,27.02
2023-04-21T06:06:07.317Z,33.75
2023-04-21T06:08:35.099Z,29.77
2023-04-21T06:11:02.830Z,31.52
2023-04-21T06:13:31.891Z,25.83
2023-04-21T06:15:59.652Z,26.20
2023-04-21T06:18:28.473Z,27.63
2023-04-21T06:23:24.440Z,29.35
2023-04-21T06:26:01.256Z,31.30
2023-04-21T06:28:29.068Z,29.00
2023-04-21T06:30:58.144Z,31.88
2023-04-21T06:33:26.863Z,33.67
2023-04-21T06:38:22.929Z,36.83
2023-04-21T06:40:51.521Z,32.45
2023-04-21T06:43:19.175Z,29.73
2023-04-21T06:45:46.962Z,36.67
2023-04-21T06:48:16.036Z,32.90
2023-04-21T06:50:46.483Z,34.40
2023-04-21T06:53:14.367Z,31.33
2023-04-21T06:55:43.105Z,24.70
2023-04-21T06:58:11.363Z,36.88
2023-04-21T07:00:39.125Z,31.48
2023-04-21T07:03:07.249Z,33.83
2023-04-21T07:05:36.687Z,30.63
2023-04-21T07:08:04.442Z,36.43
2023-04-21T07:10:32.207Z,40.97
2023-04-21T07:13:00.008Z,35.57
2023-04-21T07:15:27.716Z,33.78
2023-04-21T07:17:55.664Z,33.10
2023-04-21T07:20:23.372Z,35.35
2023-04-21T07:22:52.448Z,32.07
2023-04-21T07:25:20.343Z,34.17
2023-04-21T07:27:48.168Z,36.80
2023-04-21T07:30:16.368Z,36.50
2023-04-21T07:32:44.113Z,33.22
2023-04-21T07:35:11.862Z,29.83
2023-04-21T07:37:40.522Z,28.43
2023-04-21T07:40:10.834Z,31.17
2023-04-21T07:42:38.687Z,31.03
2023-04-21T07:45:07.217Z,32.42
2023-04-21T07:47:35.714Z,35.70
2023-04-21T07:50:03.452Z,31.67
2023-04-21T07:52:31.180Z,33.50
2023-04-21T07:54:58.847Z,34.10
2023-04-21T07:57:28.089Z,33.13
2023-04-21T07:59:55.814Z,33.80
2023-04-21T08:02:23.625Z,33.53
2023-04-21T08:04:51.837Z,29.85
2023-04-21T08:07:19.574Z,38.85
2023-04-21T08:09:47.318Z,31.53
2023-04-21T08:12:15.106Z,31.27
2023-04-21T08:14:44.275Z,31.10
2023-04-21T08:17:12.134Z,30.30
2023-04-21T08:19:39.830Z,30.27
2023-04-21T08:22:07.552Z,29.87
2023-04-21T08:24:35.481Z,29.40
2023-04-21T08:27:03.384Z,30.15
2023-04-21T08:29:31.299Z,31.98
2023-04-21T08:32:00.404Z,29.13
2023-04-21T08:34:28.226Z,30.73
2023-04-21T08:36:56.270Z,31.08
2023-04-21T08:39:23.997Z,29.73
2023-04-21T08:41:52.798Z,31.73
2023-04-21T08:46:51.444Z,27.67
2023-04-21T08:49:22.248Z,28.70
2023-04-21T08:51:50.117Z,29.67
2023-04-21T08:54:17.951Z,27.00
2023-04-21T08:56:45.681Z,26.60
2023-04-21T08:59:13.458Z,28.30
2023-04-21T09:02:10.806Z,29.02
2023-04-21T09:04:44.820Z,30.08
2023-04-21T09:07:13.381Z,31.43
2023-04-21T09:09:53.866Z,29.80
2023-04-21T09:12:21.900Z,27.53
2023-04-21T09:14:49.796Z,28.92
2023-04-21T09:17:19.148Z,25.33
2023-04-21T09:19:48.214Z,26.03
2023-04-21T09:22:16.809Z,24.77
2023-04-21T09:27:16.759Z,27.00
2023-04-21T09:29:49.080Z,21.97
2023-04-21T09:32:20.062Z,22.43
2023-04-21T09:34:49.189Z,23.17
2023-04-21T09:37:18.996Z,22.03
2023-04-21T09:40:03.609Z,23.23
2023-04-21T09:42:37.090Z,24.37
2023-04-21T09:45:36.682Z,24.17
2023-04-21T09:48:00.547Z,23.67
2023-04-21T09:53:04.856Z,27.80
2023-04-21T09:55:33.408Z,24.37
2023-04-21T10:03:01.763Z,24.17
2023-04-21T10:05:31.545Z,27.07
2023-04-21T10:07:59.729Z,24.37
2023-04-21T10:10:30.114Z,23.52
2023-04-21T10:12:58.539Z,23.17
2023-04-21T10:15:33.621Z,25.20
2023-04-21T10:18:16.306Z,22.20
2023-04-21T10:20:56.400Z,23.00
2023-04-21T10:23:28.788Z,22.70
2023-04-21T10:26:02.803Z,21.33
2023-04-21T10:28:59.376Z,21.90
2023-04-21T10:31:34.644Z,21.43
2023-04-21T10:34:20.050Z,23.20
2023-04-21T10:37:15.623Z,22.90
2023-04-21T10:39:54.593Z,24.57
2023-04-21T10:42:31.252Z,23.40
2023-04-21T10:45:09.503Z,22.27
2023-04-21T10:47:41.240Z,23.80
2023-04-21T10:50:17.933Z,22.37
2023-04-21T10:52:52.716Z,21.47
2023-04-21T10:55:21.140Z,22.80
2023-04-21T10:57:49.512Z,22.65
2023-04-21T11:00:19.551Z,20.58
2023-04-21T11:02:56.340Z,20.67
2023-04-21T11:05:32.191Z,21.97
2023-04-21T11:08:13.125Z,21.43
2023-04-21T11:10:49.829Z,22.60
2023-04-21T11:13:18.802Z,21.35
2023-04-21T11:16:01.200Z,24.35
2023-04-21T11:18:38.113Z,21.20
2023-04-21T11:21:15.906Z,21.40
2023-04-21T11:23:49.916Z,23.40
2023-04-21T11:26:17.879Z,25.63
2023-04-21T11:28:49.489Z,21.08
2023-04-21T11:31:17.393Z,23.60
2023-04-21T11:33:45.124Z,23.08
2023-04-21T11:36:12.934Z,23.20
2023-04-21T11:38:42.246Z,23.23
2023-04-21T11:41:12.055Z,21.33
2023-04-21T11:43:39.898Z,24.43
2023-04-21T11:46:15.076Z,26.77
2023-04-21T11:48:44.341Z,22.40
2023-04-21T11:51:16.479Z,24.00
2023-04-21T11:53:44.434Z,23.07
2023-04-21T11:56:13.634Z,23.00
2023-04-21T11:58:41.478Z,22.47
2023-04-21T12:01:10.297Z,23.45
2023-04-21T12:03:38.332Z,22.37
2023-04-21T12:06:07.609Z,21.23
2023-04-21T12:08:35.828Z,21.10
2023-04-21T12:11:04.091Z,20.45
2023-04-21T12:13:33.181Z,21.67
2023-04-21T12:16:04.502Z,24.25
2023-04-21T12:18:34.375Z,21.73
2023-04-21T12:21:04.484Z,19.23
2023-04-21T12:26:00.675Z,20.38
2023-04-21T12:28:28.564Z,19.38
2023-04-21T12:30:57.622Z,18.95
2023-04-21T12:33:25.644Z,19.55
2023-04-21T12:35:53.657Z,18.92
2023-04-21T12:38:21.532Z,26.05
2023-04-21T12:40:49.593Z,21.42
2023-04-21T12:43:17.396Z,21.55
2023-04-21T12:45:45.132Z,19.20
2023-04-21T12:48:14.680Z,20.38
2023-04-21T12:50:42.682Z,19.15
2023-04-21T12:53:10.433Z,18.92
2023-04-21T12:55:38.484Z,17.30
2023-04-21T12:58:07.012Z,18.55
2023-04-21T13:00:35.990Z,17.88
2023-04-21T13:03:04.547Z,19.27
2023-04-21T13:05:33.932Z,20.27
2023-04-21T13:08:01.719Z,17.38
2023-04-21T13:10:29.874Z,18.55
2023-04-21T13:12:57.674Z,16.33
2023-04-21T13:15:25.758Z,18.25
2023-04-21T13:17:54.336Z,16.95
2023-04-21T13:22:51.647Z,17.92
2023-04-21T13:25:19.524Z,21.70
2023-04-21T13:27:47.780Z,22.35
2023-04-21T13:30:16.929Z,21.20
2023-04-21T13:32:45.030Z,21.03
2023-04-21T13:35:12.981Z,22.85
2023-04-21T13:37:42.695Z,20.33
2023-04-21T13:40:12.814Z,21.83
2023-04-21T13:42:40.974Z,23.70
2023-04-21T13:45:09.903Z,24.88
2023-04-21T13:47:37.755Z,21.93
2023-04-21T13:50:06.453Z,25.23
2023-04-21T13:52:34.922Z,22.50
2023-04-21T13:55:02.977Z,26.58
2023-04-21T13:57:32.195Z,23.63
2023-04-21T13:59:59.937Z,23.37
2023-04-21T14:02:27.978Z,23.27
2023-04-21T14:04:55.936Z,24.42
2023-04-21T14:07:26.234Z,22.65
2023-04-21T14:09:54.377Z,22.17
2023-04-21T14:12:22.126Z,19.98
2023-04-21T14:14:51.218Z,20.98
2023-04-21T14:17:19.113Z,21.65
2023-04-21T14:19:47.332Z,20.60
2023-04-21T14:22:15.031Z,18.98
2023-04-21T14:24:42.734Z,20.08
2023-04-21T14:27:10.752Z,19.98
2023-04-21T14:29:38.496Z,18.20
2023-04-21T14:32:07.672Z,16.52
2023-04-21T14:34:35.757Z,17.60
2023-04-21T14:37:03.861Z,18.55
2023-04-21T14:39:32.482Z,17.75
2023-04-21T14:42:01.756Z,17.02
2023-04-21T14:44:29.618Z,16.02
2023-04-21T14:47:09.176Z,15.45
2023-04-21T14:49:39.528Z,16.90
2023-04-21T14:52:07.759Z,15.15
2023-04-21T14:54:35.530Z,16.77
2023-04-21T14:57:18.835Z,16.58
2023-04-21T14:59:49.156Z,18.55
2023-04-21T15:02:17.516Z,17.83
2023-04-21T15:07:16.301Z,16.45
2023-04-21T15:09:47.468Z,17.00
2023-04-21T15:12:15.620Z,17.27
2023-04-21T15:14:43.334Z,17.55
2023-04-21T15:17:11.131Z,16.52
2023-04-21T15:19:38.942Z,14.63
2023-04-21T15:22:08.054Z,15.35
2023-04-21T15:24:35.848Z,16.02
2023-04-21T15:27:04.061Z,16.65
2023-04-21T15:29:31.770Z,16.38
2023-04-21T15:31:59.535Z,18.40
2023-04-21T15:34:27.245Z,21.00
2023-04-21T15:36:54.934Z,16.63
2023-04-21T15:39:24.184Z,20.65
2023-04-21T15:41:53.276Z,20.65
2023-04-21T15:44:20.994Z,19.05
2023-04-21T15:46:48.813Z,19.30
2023-04-21T15:49:16.703Z,19.65
2023-04-21T15:51:44.518Z,16.95
2023-04-21T15:54:12.244Z,17.85
2023-04-21T15:56:41.380Z,17.17
2023-04-21T15:59:09.203Z,19.45
2023-04-21T16:01:36.991Z,18.30
2023-04-21T16:04:05.603Z,18.80
2023-04-21T16:06:33.609Z,20.50
2023-04-21T16:09:01.424Z,19.73
2023-04-21T16:11:29.776Z,20.33
2023-04-21T16:13:58.962Z,17.17
2023-04-21T16:16:26.725Z,21.40
2023-04-21T16:18:54.475Z,19.15
2023-04-21T16:21:22.357Z,21.02
2023-04-21T16:23:50.350Z,19.20
2023-04-21T16:26:18.176Z,18.83
2023-04-21T16:28:45.916Z,19.25
2023-04-21T16:31:15.024Z,19.65
2023-04-21T16:33:42.890Z,16.87
2023-04-21T16:36:10.694Z,18.60
2023-04-21T16:38:38.487Z,19.08
2023-04-21T16:41:06.534Z,18.90
2023-04-21T16:43:34.280Z,18.35
2023-04-21T16:46:02.158Z,18.15
2023-04-21T16:48:31.370Z,20.95
2023-04-21T16:50:59.232Z,18.10
2023-04-21T16:53:27.214Z,17.48
2023-04-21T16:55:55.012Z,18.73
2023-04-21T16:58:24.277Z,17.88
2023-04-21T17:00:52.010Z,18.93
2023-04-21T17:03:19.992Z,19.65
2023-04-21T17:05:49.396Z,19.08
2023-04-21T17:08:17.252Z,19.60
2023-04-21T17:10:44.963Z,20.75
2023-04-21T17:13:12.733Z,15.60
2023-04-21T17:15:40.689Z,17.38
2023-04-21T17:18:08.471Z,18.40
2023-04-21T17:20:36.822Z,18.75
2023-04-21T17:23:06.080Z,17.13
2023-04-21T17:25:34.095Z,20.40
2023-04-21T17:28:01.907Z,21.75
2023-04-21T17:30:29.576Z,18.55
2023-04-21T17:33:08.362Z,17.13
2023-04-21T17:35:55.832Z,22.10
2023-04-21T17:38:32.156Z,19.10
2023-04-21T17:41:02.007Z,20.67
2023-04-21T17:43:29.760Z,16.57
2023-04-21T17:45:57.455Z,20.45
2023-04-21T17:48:25.442Z,20.42
2023-04-21T17:50:53.164Z,17.60
2023-04-21T17:53:21.349Z,18.50
2023-04-21T17:55:51.066Z,25.73
2023-04-21T17:58:19.124Z,21.43
2023-04-21T18:00:46.875Z,21.83
2023-04-21T18:03:14.773Z,20.55
2023-04-21T18:05:42.827Z,20.50
2023-04-21T18:08:10.662Z,21.05
2023-04-21T18:10:38.872Z,18.83
2023-04-21T18:13:14.177Z,18.25
2023-04-21T18:15:42.042Z,18.47
2023-04-21T18:18:13.267Z,20.33
2023-04-21T18:20:45.359Z,20.03
2023-04-21T18:23:13.632Z,18.70
2023-04-21T18:25:43.209Z,20.55
2023-04-21T18:28:15.677Z,21.27
2023-04-21T18:30:44.226Z,21.47
2023-04-21T18:35:41.608Z,7.28
2023-04-21T18:38:13.622Z,12.27
2023-04-21T18:40:44.852Z,7.57
2023-04-21T18:43:14.611Z,4.93
2023-04-21T18:45:42.562Z,3.57
2023-04-21T18:48:10.763Z,3.88
2023-04-21T18:50:40.427Z,4.28
2023-04-21T18:53:12.078Z,4.37
2023-04-21T18:55:39.856Z,4.07
2023-04-21T18:58:07.627Z,3.22
2023-04-21T19:00:39.200Z,3.65
2023-04-21T19:03:07.713Z,3.63
2023-04-21T19:05:42.403Z,3.22
2023-04-21T19:08:10.832Z,3.03
2023-04-21T19:10:44.536Z,3.92
2023-04-21T19:16:07.678Z,3.43
2023-04-21T19:18:35.723Z,2.97
2023-04-21T19:21:04.428Z,3.05
2023-04-21T19:26:07.720Z,3.33
2023-04-21T19:28:36.630Z,4.57
2023-04-21T19:31:06.393Z,4.43
2023-04-21T19:33:34.314Z,5.03
2023-04-21T19:36:03.862Z,5.68
2023-04-21T19:38:32.132Z,3.60
2023-04-21T19:41:02.730Z,5.28
2023-04-21T19:43:34.152Z,5.73
2023-04-21T19:46:02.302Z,5.57
2023-04-21T19:48:32.242Z,5.50
2023-04-21T19:51:04.594Z,5.47
2023-04-21T19:53:32.728Z,6.20
2023-04-21T19:56:04.038Z,8.00
2023-04-21T19:58:40.146Z,6.70
2023-04-21T20:01:09.654Z,6.93
2023-04-21T20:06:09.679Z,7.20
2023-04-21T20:08:37.529Z,8.07
2023-04-21T20:11:05.749Z,8.60
2023-04-21T20:13:33.402Z,9.80
2023-04-21T20:16:01.424Z,7.47
2023-04-21T20:18:29.344Z,11.85
2023-04-21T20:20:59.436Z,9.45
2023-04-21T20:23:27.748Z,8.77
2023-04-21T20:25:57.483Z,9.88
2023-04-21T20:28:28.282Z,8.77
2023-04-21T20:30:57.394Z,12.40
2023-04-21T20:33:26.139Z,9.77
2023-04-21T20:38:26.659Z,8.52
2023-04-21T20:40:58.243Z,7.00
2023-04-21T20:43:29.179Z,8.00
2023-04-21T20:45:57.444Z,9.57
2023-04-21T20:48:31.224Z,8.35
2023-04-21T20:50:59.689Z,12.10
2023-04-21T20:53:31.895Z,14.73
2023-04-21T20:56:02.626Z,12.13
2023-04-21T20:58:31.616Z,14.33
2023-04-21T21:03:29.316Z,10.13
2023-04-21T21:05:57.792Z,11.83
2023-04-21T21:08:39.901Z,12.95
2023-04-21T21:11:09.259Z,10.53
2023-04-21T21:13:37.037Z,12.43
2023-04-21T21:16:05.109Z,11.52
2023-04-21T21:18:34.626Z,11.52
2023-04-21T21:21:02.443Z,9.27
2023-04-21T21:23:32.000Z,9.95
2023-04-21T21:26:00.150Z,12.53
2023-04-21T21:28:30.332Z,9.93
2023-04-21T21:30:58.102Z,9.80
2023-04-21T21:33:26.244Z,11.30
2023-04-21T21:35:54.631Z,8.00
2023-04-21T21:38:25.312Z,8.38
2023-04-21T21:40:57.481Z,10.30
2023-04-21T21:43:25.620Z,7.33
2023-04-21T21:45:55.064Z,9.05
2023-04-21T21:48:30.485Z,7.93
2023-04-21T21:50:58.819Z,9.93
2023-04-21T21:53:27.694Z,7.28
2023-04-21T21:55:56.063Z,6.43
2023-04-21T21:58:28.634Z,8.15
2023-04-21T22:01:01.564Z,9.10
2023-04-21T22:03:30.590Z,7.07
2023-04-21T22:05:59.316Z,8.77
2023-04-21T22:08:30.379Z,8.45
2023-04-21T22:10:58.683Z,8.83
2023-04-21T22:13:26.700Z,6.70
2023-04-21T22:15:55.628Z,10.40
2023-04-21T22:18:25.958Z,9.07
2023-04-21T22:20:55.377Z,6.67
2023-04-21T22:23:24.191Z,7.77
2023-04-21T22:25:53.106Z,9.63
2023-04-21T22:28:21.247Z,8.53
2023-04-21T22:30:49.451Z,8.20
2023-04-21T22:33:17.135Z,10.48
2023-04-21T22:35:46.543Z,8.87
2023-04-21T22:38:14.715Z,7.17
2023-04-21T22:40:45.640Z,9.48
2023-04-21T22:43:13.614Z,8.47
2023-04-21T22:45:42.907Z,7.35
2023-04-21T22:48:11.135Z,7.67
2023-04-21T22:50:39.217Z,8.68
2023-04-21T22:53:08.496Z,7.63
2023-04-21T22:55:38.553Z,7.53
2023-04-21T22:58:09.639Z,9.00
2023-04-21T23:00:41.455Z,8.90
2023-04-21T23:03:10.149Z,7.13
2023-04-21T23:08:05.648Z,6.53
2023-04-21T23:10:35.449Z,8.20
2023-04-21T23:13:03.252Z,7.67
2023-04-21T23:15:32.205Z,7.85
2023-04-21T23:18:03.532Z,8.77
2023-04-21T23:20:31.617Z,11.60
2023-04-21T23:22:59.637Z,9.60
2023-04-21T23:25:27.325Z,8.68
2023-04-21T23:27:56.495Z,10.40
2023-04-21T23:30:24.282Z,8.87
2023-04-21T23:32:52.043Z,10.80
2023-04-21T23:35:20.063Z,8.83
2023-04-21T23:37:48.733Z,9.20
2023-04-21T23:40:16.495Z,9.73
2023-04-21T23:42:47.530Z,8.83
2023-04-21T23:45:16.953Z,9.13
2023-04-21T23:47:45.559Z,9.77
2023-04-21T23:52:42.182Z,8.45
2023-04-21T23:55:11.830Z,9.63
2023-04-21T23:57:39.764Z,9.70
